sensor_id;sensor_type;location;lat;lon;timestamp;P1;durP1;ratioP1;P2;durP2;ratioP2
41923;SDS011;27613;48.116;11.656;2023-05-16T00:00:53;1.70;;;1.40;;
41923;SDS011;27613;48.116;11.656;2023-05-16T00:03:19;2.63;;;1.95;;
41923;SDS011;27613;48.116;11.656;2023-05-16T00:05:45;2.10;;;1.55;;
41923;SDS011;27613;48.116;11.656;2023-05-16T00:08:10;2.65;;;1.80;;
41923;SDS011;27613;48.116;11.656;2023-05-16T00:10:36;2.10;;;1.63;;
41923;SDS011;27613;48.116;11.656;2023-05-16T00:13:02;2.53;;;1.60;;
41923;SDS011;27613;48.116;11.656;2023-05-16T00:15:27;1.75;;;1.52;;
41923;SDS011;27613;48.116;11.656;2023-05-16T00:17:54;2.10;;;1.70;;
41923;SDS011;27613;48.116;11.656;2023-05-16T00:20:24;1.80;;;1.30;;
41923;SDS011;27613;48.116;11.656;2023-05-16T00:22:51;1.20;;;1.10;;
41923;SDS011;27613;48.116;11.656;2023-05-16T00:25:18;1.92;;;1.58;;
41923;SDS011;27613;48.116;11.656;2023-05-16T00:27:43;3.22;;;2.10;;
41923;SDS011;27613;48.116;11.656;2023-05-16T00:30:09;2.13;;;1.55;;
41923;SDS011;27613;48.116;11.656;2023-05-16T00:32:35;2.13;;;1.60;;
41923;SDS011;27613;48.116;11.656;2023-05-16T00:35:01;2.33;;;1.80;;
41923;SDS011;27613;48.116;11.656;2023-05-16T00:37:27;1.83;;;1.52;;
41923;SDS011;27613;48.116;11.656;2023-05-16T00:39:52;2.13;;;1.65;;
41923;SDS011;27613;48.116;11.656;2023-05-16T00:42:18;2.22;;;1.65;;
41923;SDS011;27613;48.116;11.656;2023-05-16T00:44:45;2.10;;;1.65;;
41923;SDS011;27613;48.116;11.656;2023-05-16T00:47:11;2.28;;;1.58;;
41923;SDS011;27613;48.116;11.656;2023-05-16T00:49:36;2.30;;;1.70;;
41923;SDS011;27613;48.116;11.656;2023-05-16T00:52:02;1.50;;;1.30;;
41923;SDS011;27613;48.116;11.656;2023-05-16T00:54:29;2.30;;;1.65;;
41923;SDS011;27613;48.116;11.656;2023-05-16T00:56:55;2.33;;;1.75;;
41923;SDS011;27613;48.116;11.656;2023-05-16T00:59:22;2.42;;;1.70;;
41923;SDS011;27613;48.116;11.656;2023-05-16T01:01:48;2.75;;;2.10;;
41923;SDS011;27613;48.116;11.656;2023-05-16T01:04:15;3.85;;;1.83;;
41923;SDS011;27613;48.116;11.656;2023-05-16T01:06:41;1.98;;;1.42;;
41923;SDS011;27613;48.116;11.656;2023-05-16T01:09:08;2.33;;;1.70;;
41923;SDS011;27613;48.116;11.656;2023-05-16T01:14:44;3.95;;;1.90;;
41923;SDS011;27613;48.116;11.656;2023-05-16T01:20:08;2.85;;;1.83;;
41923;SDS011;27613;48.116;11.656;2023-05-16T01:25:49;1.17;;;1.08;;
41923;SDS011;27613;48.116;11.656;2023-05-16T01:28:22;1.90;;;1.50;;
41923;SDS011;27613;48.116;11.656;2023-05-16T01:30:49;2.03;;;1.70;;
41923;SDS011;27613;48.116;11.656;2023-05-16T01:33:15;15.23;;;1.80;;
41923;SDS011;27613;48.116;11.656;2023-05-16T01:36:28;3.15;;;2.10;;
41923;SDS011;27613;48.116;11.656;2023-05-16T01:44:15;1.95;;;1.55;;
41923;SDS011;27613;48.116;11.656;2023-05-16T01:46:56;2.05;;;1.58;;
41923;SDS011;27613;48.116;11.656;2023-05-16T01:52:29;2.70;;;1.73;;
41923;SDS011;27613;48.116;11.656;2023-05-16T01:55:00;2.38;;;1.95;;
41923;SDS011;27613;48.116;11.656;2023-05-16T01:57:27;2.67;;;2.08;;
41923;SDS011;27613;48.116;11.656;2023-05-16T01:59:53;2.30;;;1.90;;
41923;SDS011;27613;48.116;11.656;2023-05-16T02:02:20;2.80;;;1.85;;
41923;SDS011;27613;48.116;11.656;2023-05-16T02:04:46;2.80;;;1.92;;
41923;SDS011;27613;48.116;11.656;2023-05-16T02:07:11;2.55;;;1.95;;
41923;SDS011;27613;48.116;11.656;2023-05-16T02:09:39;2.55;;;1.95;;
41923;SDS011;27613;48.116;11.656;2023-05-16T02:12:04;4.03;;;2.03;;
41923;SDS011;27613;48.116;11.656;2023-05-16T02:14:30;2.97;;;2.00;;
41923;SDS011;27613;48.116;11.656;2023-05-16T02:16:56;2.63;;;2.08;;
41923;SDS011;27613;48.116;11.656;2023-05-16T02:19:22;2.38;;;2.03;;
41923;SDS011;27613;48.116;11.656;2023-05-16T02:21:47;2.95;;;2.13;;
41923;SDS011;27613;48.116;11.656;2023-05-16T02:24:12;2.65;;;2.00;;
41923;SDS011;27613;48.116;11.656;2023-05-16T02:26:38;3.00;;;2.20;;
41923;SDS011;27613;48.116;11.656;2023-05-16T02:29:04;2.78;;;2.00;;
41923;SDS011;27613;48.116;11.656;2023-05-16T02:31:30;2.65;;;2.03;;
41923;SDS011;27613;48.116;11.656;2023-05-16T02:33:57;2.92;;;2.17;;
41923;SDS011;27613;48.116;11.656;2023-05-16T02:36:23;2.03;;;1.63;;
41923;SDS011;27613;48.116;11.656;2023-05-16T02:38:49;2.10;;;1.60;;
41923;SDS011;27613;48.116;11.656;2023-05-16T02:41:15;3.47;;;2.10;;
41923;SDS011;27613;48.116;11.656;2023-05-16T02:43:40;2.60;;;1.92;;
41923;SDS011;27613;48.116;11.656;2023-05-16T02:46:24;2.10;;;1.75;;
41923;SDS011;27613;48.116;11.656;2023-05-16T02:48:51;3.65;;;1.85;;
41923;SDS011;27613;48.116;11.656;2023-05-16T02:51:18;3.15;;;2.22;;
41923;SDS011;27613;48.116;11.656;2023-05-16T02:53:45;2.40;;;1.90;;
41923;SDS011;27613;48.116;11.656;2023-05-16T02:56:11;2.30;;;1.67;;
41923;SDS011;27613;48.116;11.656;2023-05-16T02:58:37;2.22;;;1.77;;
41923;SDS011;27613;48.116;11.656;2023-05-16T03:01:02;2.45;;;1.85;;
41923;SDS011;27613;48.116;11.656;2023-05-16T03:03:28;2.72;;;2.03;;
41923;SDS011;27613;48.116;11.656;2023-05-16T03:05:54;3.50;;;2.17;;
41923;SDS011;27613;48.116;11.656;2023-05-16T03:08:19;2.88;;;1.98;;
41923;SDS011;27613;48.116;11.656;2023-05-16T03:10:45;2.58;;;2.10;;
41923;SDS011;27613;48.116;11.656;2023-05-16T03:13:10;1.98;;;1.70;;
41923;SDS011;27613;48.116;11.656;2023-05-16T03:15:36;5.55;;;2.13;;
41923;SDS011;27613;48.116;11.656;2023-05-16T03:18:01;2.65;;;1.98;;
41923;SDS011;27613;48.116;11.656;2023-05-16T03:20:27;3.83;;;2.63;;
41923;SDS011;27613;48.116;11.656;2023-05-16T03:22:53;3.45;;;2.50;;
41923;SDS011;27613;48.116;11.656;2023-05-16T03:25:19;2.88;;;2.33;;
41923;SDS011;27613;48.116;11.656;2023-05-16T03:27:45;2.63;;;2.15;;
41923;SDS011;27613;48.116;11.656;2023-05-16T03:30:10;10.55;;;2.30;;
41923;SDS011;27613;48.116;11.656;2023-05-16T03:32:37;2.63;;;2.00;;
41923;SDS011;27613;48.116;11.656;2023-05-16T03:35:02;5.45;;;2.58;;
41923;SDS011;27613;48.116;11.656;2023-05-16T03:37:28;3.05;;;2.42;;
41923;SDS011;27613;48.116;11.656;2023-05-16T03:39:54;3.17;;;2.00;;
41923;SDS011;27613;48.116;11.656;2023-05-16T03:42:20;2.97;;;2.28;;
41923;SDS011;27613;48.116;11.656;2023-05-16T03:44:45;4.95;;;2.70;;
41923;SDS011;27613;48.116;11.656;2023-05-16T03:47:11;3.35;;;2.38;;
41923;SDS011;27613;48.116;11.656;2023-05-16T03:49:36;3.42;;;2.28;;
41923;SDS011;27613;48.116;11.656;2023-05-16T03:52:03;3.42;;;2.47;;
41923;SDS011;27613;48.116;11.656;2023-05-16T03:54:29;4.97;;;2.55;;
41923;SDS011;27613;48.116;11.656;2023-05-16T03:56:54;3.85;;;2.33;;
41923;SDS011;27613;48.116;11.656;2023-05-16T03:59:20;3.33;;;2.55;;
41923;SDS011;27613;48.116;11.656;2023-05-16T04:01:45;3.05;;;2.40;;
41923;SDS011;27613;48.116;11.656;2023-05-16T04:04:11;3.83;;;2.90;;
41923;SDS011;27613;48.116;11.656;2023-05-16T04:06:38;3.10;;;2.30;;
41923;SDS011;27613;48.116;11.656;2023-05-16T04:09:03;9.95;;;2.80;;
41923;SDS011;27613;48.116;11.656;2023-05-16T04:11:30;3.53;;;2.50;;
41923;SDS011;27613;48.116;11.656;2023-05-16T04:13:56;3.70;;;2.75;;
41923;SDS011;27613;48.116;11.656;2023-05-16T04:16:21;3.15;;;2.58;;
41923;SDS011;27613;48.116;11.656;2023-05-16T04:18:47;4.85;;;2.70;;
41923;SDS011;27613;48.116;11.656;2023-05-16T04:21:13;5.45;;;2.80;;
41923;SDS011;27613;48.116;11.656;2023-05-16T04:23:39;3.92;;;2.90;;
41923;SDS011;27613;48.116;11.656;2023-05-16T04:26:05;4.57;;;3.03;;
41923;SDS011;27613;48.116;11.656;2023-05-16T04:28:31;3.38;;;2.40;;
41923;SDS011;27613;48.116;11.656;2023-05-16T04:30:56;3.97;;;2.70;;
41923;SDS011;27613;48.116;11.656;2023-05-16T04:33:22;3.13;;;2.60;;
41923;SDS011;27613;48.116;11.656;2023-05-16T04:35:48;5.32;;;2.92;;
41923;SDS011;27613;48.116;11.656;2023-05-16T04:38:13;4.40;;;2.92;;
41923;SDS011;27613;48.116;11.656;2023-05-16T04:40:39;3.65;;;2.85;;
41923;SDS011;27613;48.116;11.656;2023-05-16T04:43:07;3.95;;;2.95;;
41923;SDS011;27613;48.116;11.656;2023-05-16T04:45:33;4.60;;;2.92;;
41923;SDS011;27613;48.116;11.656;2023-05-16T04:47:59;3.50;;;2.80;;
41923;SDS011;27613;48.116;11.656;2023-05-16T04:50:25;7.90;;;3.67;;
41923;SDS011;27613;48.116;11.656;2023-05-16T04:52:50;4.22;;;3.03;;
41923;SDS011;27613;48.116;11.656;2023-05-16T04:55:16;4.53;;;3.25;;
41923;SDS011;27613;48.116;11.656;2023-05-16T04:57:42;4.88;;;3.20;;
41923;SDS011;27613;48.116;11.656;2023-05-16T05:00:07;4.22;;;3.50;;
41923;SDS011;27613;48.116;11.656;2023-05-16T05:02:37;4.15;;;3.28;;
41923;SDS011;27613;48.116;11.656;2023-05-16T05:05:03;4.47;;;3.60;;
41923;SDS011;27613;48.116;11.656;2023-05-16T05:07:30;5.93;;;3.97;;
41923;SDS011;27613;48.116;11.656;2023-05-16T05:09:56;4.10;;;3.22;;
41923;SDS011;27613;48.116;11.656;2023-05-16T05:12:22;4.57;;;3.60;;
41923;SDS011;27613;48.116;11.656;2023-05-16T05:14:48;7.80;;;4.65;;
41923;SDS011;27613;48.116;11.656;2023-05-16T05:17:13;4.53;;;3.75;;
41923;SDS011;27613;48.116;11.656;2023-05-16T05:19:40;4.25;;;3.30;;
41923;SDS011;27613;48.116;11.656;2023-05-16T05:22:06;4.60;;;3.17;;
41923;SDS011;27613;48.116;11.656;2023-05-16T05:24:31;5.32;;;3.50;;
41923;SDS011;27613;48.116;11.656;2023-05-16T05:26:57;4.15;;;3.33;;
41923;SDS011;27613;48.116;11.656;2023-05-16T05:29:22;5.60;;;3.65;;
41923;SDS011;27613;48.116;11.656;2023-05-16T05:31:48;4.93;;;3.60;;
41923;SDS011;27613;48.116;11.656;2023-05-16T05:34:13;7.15;;;4.38;;
41923;SDS011;27613;48.116;11.656;2023-05-16T05:36:39;5.40;;;4.18;;
41923;SDS011;27613;48.116;11.656;2023-05-16T05:39:04;5.88;;;3.88;;
41923;SDS011;27613;48.116;11.656;2023-05-16T05:41:30;9.55;;;4.13;;
41923;SDS011;27613;48.116;11.656;2023-05-16T05:43:55;4.97;;;4.05;;
41923;SDS011;27613;48.116;11.656;2023-05-16T05:46:21;4.55;;;3.85;;
41923;SDS011;27613;48.116;11.656;2023-05-16T05:48:48;4.38;;;3.67;;
41923;SDS011;27613;48.116;11.656;2023-05-16T05:51:13;5.05;;;4.15;;
41923;SDS011;27613;48.116;11.656;2023-05-16T05:53:39;5.25;;;4.10;;
41923;SDS011;27613;48.116;11.656;2023-05-16T05:56:05;5.50;;;4.22;;
41923;SDS011;27613;48.116;11.656;2023-05-16T05:58:31;5.05;;;3.97;;
41923;SDS011;27613;48.116;11.656;2023-05-16T06:00:57;5.90;;;4.72;;
41923;SDS011;27613;48.116;11.656;2023-05-16T06:03:22;5.97;;;4.10;;
41923;SDS011;27613;48.116;11.656;2023-05-16T06:05:48;5.80;;;4.10;;
41923;SDS011;27613;48.116;11.656;2023-05-16T06:08:13;6.40;;;3.67;;
41923;SDS011;27613;48.116;11.656;2023-05-16T06:10:39;4.85;;;4.05;;
41923;SDS011;27613;48.116;11.656;2023-05-16T06:13:04;4.95;;;3.88;;
41923;SDS011;27613;48.116;11.656;2023-05-16T06:15:30;4.97;;;4.05;;
41923;SDS011;27613;48.116;11.656;2023-05-16T06:17:55;4.82;;;3.95;;
41923;SDS011;27613;48.116;11.656;2023-05-16T06:20:21;4.45;;;3.90;;
41923;SDS011;27613;48.116;11.656;2023-05-16T06:22:47;5.93;;;4.15;;
41923;SDS011;27613;48.116;11.656;2023-05-16T06:25:13;6.63;;;4.15;;
41923;SDS011;27613;48.116;11.656;2023-05-16T06:27:38;5.68;;;3.95;;
41923;SDS011;27613;48.116;11.656;2023-05-16T06:30:04;5.35;;;3.70;;
41923;SDS011;27613;48.116;11.656;2023-05-16T06:32:30;4.80;;;3.83;;
41923;SDS011;27613;48.116;11.656;2023-05-16T06:34:56;4.90;;;3.88;;
41923;SDS011;27613;48.116;11.656;2023-05-16T06:37:21;4.65;;;3.95;;
41923;SDS011;27613;48.116;11.656;2023-05-16T06:39:47;4.68;;;3.75;;
41923;SDS011;27613;48.116;11.656;2023-05-16T06:42:13;4.60;;;3.83;;
41923;SDS011;27613;48.116;11.656;2023-05-16T06:44:38;6.68;;;4.07;;
41923;SDS011;27613;48.116;11.656;2023-05-16T06:47:05;5.55;;;4.40;;
41923;SDS011;27613;48.116;11.656;2023-05-16T06:49:30;4.50;;;3.50;;
41923;SDS011;27613;48.116;11.656;2023-05-16T06:51:56;7.40;;;4.25;;
41923;SDS011;27613;48.116;11.656;2023-05-16T06:54:22;5.00;;;4.00;;
41923;SDS011;27613;48.116;11.656;2023-05-16T06:56:47;5.63;;;4.13;;
41923;SDS011;27613;48.116;11.656;2023-05-16T06:59:13;11.77;;;4.43;;
41923;SDS011;27613;48.116;11.656;2023-05-16T07:01:38;5.50;;;4.00;;
41923;SDS011;27613;48.116;11.656;2023-05-16T07:04:04;4.90;;;3.42;;
41923;SDS011;27613;48.116;11.656;2023-05-16T07:06:29;4.07;;;3.40;;
41923;SDS011;27613;48.116;11.656;2023-05-16T07:08:55;5.15;;;4.05;;
41923;SDS011;27613;48.116;11.656;2023-05-16T07:11:20;4.88;;;4.28;;
41923;SDS011;27613;48.116;11.656;2023-05-16T07:13:46;3.83;;;3.33;;
41923;SDS011;27613;48.116;11.656;2023-05-16T07:16:11;4.30;;;3.38;;
41923;SDS011;27613;48.116;11.656;2023-05-16T07:18:37;4.97;;;4.03;;
41923;SDS011;27613;48.116;11.656;2023-05-16T07:21:02;5.82;;;4.13;;
41923;SDS011;27613;48.116;11.656;2023-05-16T07:23:28;6.60;;;3.95;;
41923;SDS011;27613;48.116;11.656;2023-05-16T07:25:53;5.95;;;4.10;;
41923;SDS011;27613;48.116;11.656;2023-05-16T07:28:19;5.07;;;3.50;;
41923;SDS011;27613;48.116;11.656;2023-05-16T07:30:46;4.85;;;3.70;;
41923;SDS011;27613;48.116;11.656;2023-05-16T07:33:11;5.57;;;3.97;;
41923;SDS011;27613;48.116;11.656;2023-05-16T07:35:37;5.50;;;4.40;;
41923;SDS011;27613;48.116;11.656;2023-05-16T07:38:03;6.72;;;4.03;;
41923;SDS011;27613;48.116;11.656;2023-05-16T07:40:28;4.80;;;3.83;;
41923;SDS011;27613;48.116;11.656;2023-05-16T07:42:54;5.70;;;4.10;;
41923;SDS011;27613;48.116;11.656;2023-05-16T07:45:19;5.97;;;4.20;;
41923;SDS011;27613;48.116;11.656;2023-05-16T07:47:45;4.70;;;3.67;;
41923;SDS011;27613;48.116;11.656;2023-05-16T07:50:11;4.53;;;4.13;;
41923;SDS011;27613;48.116;11.656;2023-05-16T07:52:36;6.78;;;4.82;;
41923;SDS011;27613;48.116;11.656;2023-05-16T07:55:02;5.47;;;4.45;;
41923;SDS011;27613;48.116;11.656;2023-05-16T07:57:28;5.70;;;4.35;;
41923;SDS011;27613;48.116;11.656;2023-05-16T07:59:54;5.78;;;4.05;;
41923;SDS011;27613;48.116;11.656;2023-05-16T08:02:20;4.40;;;3.65;;
41923;SDS011;27613;48.116;11.656;2023-05-16T08:04:50;5.70;;;4.20;;
41923;SDS011;27613;48.116;11.656;2023-05-16T08:07:16;7.93;;;4.47;;
41923;SDS011;27613;48.116;11.656;2023-05-16T08:09:41;5.35;;;4.32;;
41923;SDS011;27613;48.116;11.656;2023-05-16T08:12:07;4.50;;;3.85;;
41923;SDS011;27613;48.116;11.656;2023-05-16T08:14:33;4.47;;;3.55;;
41923;SDS011;27613;48.116;11.656;2023-05-16T08:16:58;6.10;;;4.15;;
41923;SDS011;27613;48.116;11.656;2023-05-16T08:19:24;6.43;;;4.30;;
41923;SDS011;27613;48.116;11.656;2023-05-16T08:21:50;5.47;;;4.35;;
41923;SDS011;27613;48.116;11.656;2023-05-16T08:24:16;6.38;;;4.15;;
41923;SDS011;27613;48.116;11.656;2023-05-16T08:26:41;6.20;;;4.35;;
41923;SDS011;27613;48.116;11.656;2023-05-16T08:29:07;4.68;;;3.80;;
41923;SDS011;27613;48.116;11.656;2023-05-16T08:31:32;5.03;;;4.10;;
41923;SDS011;27613;48.116;11.656;2023-05-16T08:33:58;4.90;;;4.25;;
41923;SDS011;27613;48.116;11.656;2023-05-16T08:36:25;6.28;;;4.38;;
41923;SDS011;27613;48.116;11.656;2023-05-16T08:38:51;7.72;;;4.60;;
41923;SDS011;27613;48.116;11.656;2023-05-16T08:41:17;5.55;;;4.40;;
41923;SDS011;27613;48.116;11.656;2023-05-16T08:43:42;5.07;;;3.95;;
41923;SDS011;27613;48.116;11.656;2023-05-16T08:46:08;4.63;;;4.00;;
41923;SDS011;27613;48.116;11.656;2023-05-16T08:48:35;4.70;;;3.90;;
41923;SDS011;27613;48.116;11.656;2023-05-16T08:51:01;4.95;;;3.90;;
41923;SDS011;27613;48.116;11.656;2023-05-16T08:53:30;5.82;;;4.25;;
41923;SDS011;27613;48.116;11.656;2023-05-16T08:56:01;5.95;;;4.20;;
41923;SDS011;27613;48.116;11.656;2023-05-16T08:58:28;4.75;;;4.25;;
41923;SDS011;27613;48.116;11.656;2023-05-16T09:00:54;5.75;;;4.47;;
41923;SDS011;27613;48.116;11.656;2023-05-16T09:03:20;6.28;;;4.55;;
41923;SDS011;27613;48.116;11.656;2023-05-16T09:05:48;5.07;;;4.57;;
41923;SDS011;27613;48.116;11.656;2023-05-16T09:08:14;6.63;;;4.43;;
41923;SDS011;27613;48.116;11.656;2023-05-16T09:10:39;8.90;;;4.60;;
41923;SDS011;27613;48.116;11.656;2023-05-16T09:13:05;5.57;;;4.35;;
41923;SDS011;27613;48.116;11.656;2023-05-16T09:15:31;4.45;;;4.00;;
41923;SDS011;27613;48.116;11.656;2023-05-16T09:17:59;4.63;;;4.07;;
41923;SDS011;27613;48.116;11.656;2023-05-16T09:20:26;5.75;;;4.00;;
41923;SDS011;27613;48.116;11.656;2023-05-16T09:22:53;6.07;;;4.30;;
41923;SDS011;27613;48.116;11.656;2023-05-16T09:25:20;4.95;;;4.13;;
41923;SDS011;27613;48.116;11.656;2023-05-16T09:27:47;5.15;;;4.25;;
41923;SDS011;27613;48.116;11.656;2023-05-16T09:30:13;4.53;;;3.92;;
41923;SDS011;27613;48.116;11.656;2023-05-16T09:32:42;4.00;;;3.60;;
41923;SDS011;27613;48.116;11.656;2023-05-16T09:35:10;4.03;;;3.28;;
41923;SDS011;27613;48.116;11.656;2023-05-16T09:37:47;4.85;;;3.03;;
41923;SDS011;27613;48.116;11.656;2023-05-16T09:40:13;3.83;;;2.67;;
41923;SDS011;27613;48.116;11.656;2023-05-16T09:42:40;4.10;;;3.20;;
41923;SDS011;27613;48.116;11.656;2023-05-16T09:45:10;4.43;;;3.15;;
41923;SDS011;27613;48.116;11.656;2023-05-16T09:47:36;4.25;;;2.85;;
41923;SDS011;27613;48.116;11.656;2023-05-16T09:50:09;3.75;;;2.60;;
41923;SDS011;27613;48.116;11.656;2023-05-16T09:52:36;6.13;;;3.20;;
41923;SDS011;27613;48.116;11.656;2023-05-16T09:55:02;3.50;;;2.55;;
41923;SDS011;27613;48.116;11.656;2023-05-16T09:57:31;5.75;;;2.95;;
41923;SDS011;27613;48.116;11.656;2023-05-16T09:59:58;4.50;;;3.25;;
41923;SDS011;27613;48.116;11.656;2023-05-16T10:02:25;4.45;;;3.45;;
41923;SDS011;27613;48.116;11.656;2023-05-16T10:04:51;3.90;;;2.90;;
41923;SDS011;27613;48.116;11.656;2023-05-16T10:07:17;3.30;;;2.78;;
41923;SDS011;27613;48.116;11.656;2023-05-16T10:09:45;3.95;;;3.25;;
41923;SDS011;27613;48.116;11.656;2023-05-16T10:12:13;11.25;;;3.78;;
41923;SDS011;27613;48.116;11.656;2023-05-16T10:14:40;7.82;;;3.53;;
41923;SDS011;27613;48.116;11.656;2023-05-16T10:17:07;4.43;;;3.47;;
41923;SDS011;27613;48.116;11.656;2023-05-16T10:19:36;4.05;;;3.45;;
41923;SDS011;27613;48.116;11.656;2023-05-16T10:22:04;5.13;;;3.75;;
41923;SDS011;27613;48.116;11.656;2023-05-16T10:24:42;4.60;;;3.65;;
41923;SDS011;27613;48.116;11.656;2023-05-16T10:27:12;4.38;;;3.97;;
41923;SDS011;27613;48.116;11.656;2023-05-16T10:29:39;5.35;;;3.50;;
41923;SDS011;27613;48.116;11.656;2023-05-16T10:32:07;4.18;;;3.53;;
41923;SDS011;27613;48.116;11.656;2023-05-16T10:34:34;5.35;;;4.30;;
41923;SDS011;27613;48.116;11.656;2023-05-16T10:36:59;3.95;;;3.42;;
41923;SDS011;27613;48.116;11.656;2023-05-16T10:39:26;5.00;;;4.50;;
41923;SDS011;27613;48.116;11.656;2023-05-16T10:41:53;5.03;;;4.35;;
41923;SDS011;27613;48.116;11.656;2023-05-16T10:44:19;8.63;;;5.32;;
41923;SDS011;27613;48.116;11.656;2023-05-16T10:46:45;5.82;;;4.97;;
41923;SDS011;27613;48.116;11.656;2023-05-16T10:49:18;6.28;;;5.25;;
41923;SDS011;27613;48.116;11.656;2023-05-16T10:51:45;5.75;;;4.97;;
41923;SDS011;27613;48.116;11.656;2023-05-16T10:54:34;7.68;;;5.45;;
41923;SDS011;27613;48.116;11.656;2023-05-16T10:57:08;5.95;;;4.88;;
41923;SDS011;27613;48.116;11.656;2023-05-16T10:59:44;5.80;;;5.20;;
41923;SDS011;27613;48.116;11.656;2023-05-16T11:02:24;6.35;;;5.05;;
41923;SDS011;27613;48.116;11.656;2023-05-16T11:04:57;7.03;;;5.60;;
41923;SDS011;27613;48.116;11.656;2023-05-16T11:07:24;5.43;;;4.90;;
41923;SDS011;27613;48.116;11.656;2023-05-16T11:12:42;5.00;;;4.53;;
41923;SDS011;27613;48.116;11.656;2023-05-16T11:15:31;7.18;;;5.65;;
41923;SDS011;27613;48.116;11.656;2023-05-16T11:20:51;7.20;;;5.22;;
41923;SDS011;27613;48.116;11.656;2023-05-16T11:23:17;5.75;;;5.15;;
41923;SDS011;27613;48.116;11.656;2023-05-16T11:25:45;6.32;;;5.20;;
41923;SDS011;27613;48.116;11.656;2023-05-16T11:28:21;5.30;;;4.80;;
41923;SDS011;27613;48.116;11.656;2023-05-16T11:30:49;8.07;;;5.63;;
41923;SDS011;27613;48.116;11.656;2023-05-16T11:33:16;6.22;;;5.47;;
41923;SDS011;27613;48.116;11.656;2023-05-16T11:35:42;5.78;;;4.63;;
41923;SDS011;27613;48.116;11.656;2023-05-16T11:38:14;5.00;;;4.38;;
41923;SDS011;27613;48.116;11.656;2023-05-16T11:40:43;5.55;;;4.45;;
41923;SDS011;27613;48.116;11.656;2023-05-16T11:43:09;4.88;;;4.05;;
41923;SDS011;27613;48.116;11.656;2023-05-16T11:45:36;5.47;;;3.85;;
41923;SDS011;27613;48.116;11.656;2023-05-16T11:48:02;4.05;;;3.28;;
41923;SDS011;27613;48.116;11.656;2023-05-16T11:50:28;5.30;;;3.50;;
41923;SDS011;27613;48.116;11.656;2023-05-16T11:52:54;4.95;;;3.22;;
41923;SDS011;27613;48.116;11.656;2023-05-16T11:55:22;3.72;;;3.15;;
41923;SDS011;27613;48.116;11.656;2023-05-16T11:57:52;3.42;;;2.95;;
41923;SDS011;27613;48.116;11.656;2023-05-16T12:00:22;6.40;;;4.07;;
41923;SDS011;27613;48.116;11.656;2023-05-16T12:02:50;2.95;;;2.60;;
41923;SDS011;27613;48.116;11.656;2023-05-16T12:05:16;3.97;;;3.20;;
41923;SDS011;27613;48.116;11.656;2023-05-16T12:07:44;3.70;;;3.22;;
41923;SDS011;27613;48.116;11.656;2023-05-16T12:10:11;6.78;;;4.20;;
41923;SDS011;27613;48.116;11.656;2023-05-16T12:12:39;4.10;;;3.42;;
41923;SDS011;27613;48.116;11.656;2023-05-16T12:15:07;4.45;;;3.70;;
41923;SDS011;27613;48.116;11.656;2023-05-16T12:17:37;3.90;;;3.50;;
41923;SDS011;27613;48.116;11.656;2023-05-16T12:20:04;6.22;;;4.18;;
41923;SDS011;27613;48.116;11.656;2023-05-16T12:22:34;8.15;;;4.57;;
41923;SDS011;27613;48.116;11.656;2023-05-16T12:25:45;5.30;;;4.38;;
41923;SDS011;27613;48.116;11.656;2023-05-16T12:27:52;7.50;;;4.07;;
41923;SDS011;27613;48.116;11.656;2023-05-16T12:30:25;4.38;;;3.80;;
41923;SDS011;27613;48.116;11.656;2023-05-16T12:33:02;6.20;;;4.90;;
41923;SDS011;27613;48.116;11.656;2023-05-16T12:35:32;5.38;;;4.60;;
41923;SDS011;27613;48.116;11.656;2023-05-16T12:37:59;4.80;;;4.05;;
41923;SDS011;27613;48.116;11.656;2023-05-16T12:40:28;7.10;;;4.80;;
41923;SDS011;27613;48.116;11.656;2023-05-16T12:42:54;4.57;;;3.97;;
41923;SDS011;27613;48.116;11.656;2023-05-16T12:45:20;4.75;;;4.22;;
41923;SDS011;27613;48.116;11.656;2023-05-16T12:47:47;5.95;;;4.80;;
41923;SDS011;27613;48.116;11.656;2023-05-16T12:50:13;4.75;;;4.30;;
41923;SDS011;27613;48.116;11.656;2023-05-16T12:52:48;5.60;;;4.55;;
41923;SDS011;27613;48.116;11.656;2023-05-16T12:55:18;5.65;;;4.70;;
41923;SDS011;27613;48.116;11.656;2023-05-16T12:57:45;5.28;;;4.25;;
41923;SDS011;27613;48.116;11.656;2023-05-16T13:00:12;5.45;;;4.38;;
41923;SDS011;27613;48.116;11.656;2023-05-16T13:02:39;5.47;;;4.60;;
41923;SDS011;27613;48.116;11.656;2023-05-16T13:05:05;5.93;;;5.20;;
41923;SDS011;27613;48.116;11.656;2023-05-16T13:07:32;6.25;;;4.38;;
41923;SDS011;27613;48.116;11.656;2023-05-16T13:09:58;5.90;;;4.88;;
41923;SDS011;27613;48.116;11.656;2023-05-16T13:12:23;7.40;;;5.82;;
41923;SDS011;27613;48.116;11.656;2023-05-16T13:14:51;6.22;;;5.22;;
41923;SDS011;27613;48.116;11.656;2023-05-16T13:17:17;5.50;;;4.78;;
41923;SDS011;27613;48.116;11.656;2023-05-16T13:19:43;6.15;;;5.15;;
41923;SDS011;27613;48.116;11.656;2023-05-16T13:22:08;5.85;;;4.93;;
41923;SDS011;27613;48.116;11.656;2023-05-16T13:24:34;24.65;;;6.82;;
41923;SDS011;27613;48.116;11.656;2023-05-16T13:26:59;7.00;;;5.43;;
41923;SDS011;27613;48.116;11.656;2023-05-16T13:29:25;5.72;;;4.40;;
41923;SDS011;27613;48.116;11.656;2023-05-16T13:31:50;5.13;;;4.63;;
41923;SDS011;27613;48.116;11.656;2023-05-16T13:34:16;5.80;;;4.57;;
41923;SDS011;27613;48.116;11.656;2023-05-16T13:36:41;6.15;;;4.55;;
41923;SDS011;27613;48.116;11.656;2023-05-16T13:39:07;11.48;;;4.88;;
41923;SDS011;27613;48.116;11.656;2023-05-16T13:41:32;6.35;;;5.15;;
41923;SDS011;27613;48.116;11.656;2023-05-16T13:44:02;6.07;;;5.13;;
41923;SDS011;27613;48.116;11.656;2023-05-16T13:46:27;5.47;;;4.90;;
41923;SDS011;27613;48.116;11.656;2023-05-16T13:48:53;6.13;;;3.90;;
41923;SDS011;27613;48.116;11.656;2023-05-16T13:51:18;3.75;;;2.80;;
41923;SDS011;27613;48.116;11.656;2023-05-16T13:53:44;6.47;;;2.10;;
41923;SDS011;27613;48.116;11.656;2023-05-16T13:56:10;2.53;;;1.90;;
41923;SDS011;27613;48.116;11.656;2023-05-16T13:58:37;2.45;;;2.05;;
41923;SDS011;27613;48.116;11.656;2023-05-16T14:01:03;2.50;;;2.05;;
41923;SDS011;27613;48.116;11.656;2023-05-16T14:03:28;2.88;;;2.40;;
41923;SDS011;27613;48.116;11.656;2023-05-16T14:05:54;2.63;;;2.08;;
41923;SDS011;27613;48.116;11.656;2023-05-16T14:08:20;2.47;;;1.90;;
41923;SDS011;27613;48.116;11.656;2023-05-16T14:10:45;6.47;;;2.30;;
41923;SDS011;27613;48.116;11.656;2023-05-16T14:13:11;2.75;;;2.13;;
41923;SDS011;27613;48.116;11.656;2023-05-16T14:15:36;2.92;;;2.40;;
41923;SDS011;27613;48.116;11.656;2023-05-16T14:18:02;3.92;;;2.92;;
41923;SDS011;27613;48.116;11.656;2023-05-16T14:20:28;3.67;;;2.78;;
41923;SDS011;27613;48.116;11.656;2023-05-16T14:22:54;3.38;;;2.53;;
41923;SDS011;27613;48.116;11.656;2023-05-16T14:25:20;3.38;;;2.83;;
41923;SDS011;27613;48.116;11.656;2023-05-16T14:27:46;5.57;;;3.10;;
41923;SDS011;27613;48.116;11.656;2023-05-16T14:30:14;3.13;;;2.30;;
41923;SDS011;27613;48.116;11.656;2023-05-16T14:32:40;3.08;;;2.55;;
41923;SDS011;27613;48.116;11.656;2023-05-16T14:35:06;4.47;;;3.20;;
41923;SDS011;27613;48.116;11.656;2023-05-16T14:37:33;5.88;;;3.10;;
41923;SDS011;27613;48.116;11.656;2023-05-16T14:39:58;3.20;;;2.60;;
41923;SDS011;27613;48.116;11.656;2023-05-16T14:42:24;3.58;;;2.53;;
41923;SDS011;27613;48.116;11.656;2023-05-16T14:44:50;3.50;;;2.90;;
41923;SDS011;27613;48.116;11.656;2023-05-16T14:47:16;4.35;;;3.15;;
41923;SDS011;27613;48.116;11.656;2023-05-16T14:49:41;3.40;;;2.65;;
41923;SDS011;27613;48.116;11.656;2023-05-16T14:52:07;5.20;;;2.78;;
41923;SDS011;27613;48.116;11.656;2023-05-16T14:54:32;3.75;;;3.03;;